< Typhoon 199902 1999 Season Typhoon 199904 >
Typhoon 199903 (MAGGIE)
General InformationTrack Information on Google MapsDetailed Wind InformationList of All Images || Disaster Info.ResourceGoogle EarthGE AnimationAtom FeedGeoJSON
Detalied Best Track (Time Zone = UTC)
Year Month Day Hour Lat. Long. Pressure (hPa) Wind (kt) Class Image Chart
1999 6 1 06 10.9 131.2 1004 0 2 Image Chart
1999 6 1 12 11.5 130.9 1004 0 2 Image Chart
1999 6 1 18 12.1 130.5 1002 0 2 Image Chart
1999 6 2 00 12.7 130.1 1000 0 2 Image Chart
1999 6 2 06 13.3 129.8 998 40 3 Image Chart
1999 6 2 12 13.8 129.6 996 40 3 Image Chart
1999 6 2 18 14.3 129.6 994 45 3 Image Chart
1999 6 3 00 14.9 129.4 990 50 4 Image Chart
1999 6 3 06 15.4 129.0 985 55 4 Image Chart
1999 6 3 12 15.9 128.5 980 55 4 Image Chart
1999 6 3 18 16.5 127.9 975 60 4 Image Chart
1999 6 4 00 17.1 127.0 970 65 5 Image Chart
1999 6 4 06 17.3 126.4 965 70 5 Image Chart
1999 6 4 12 17.5 125.9 955 75 5 Image Chart
1999 6 4 18 18.1 125.3 955 75 5 Image Chart
1999 6 5 00 18.9 124.5 955 75 5 Image Chart
1999 6 5 06 19.7 123.6 960 70 5 Image Chart
1999 6 5 12 20.5 122.3 965 70 5 Image Chart
1999 6 5 18 21.0 121.0 970 65 5 Image Chart
1999 6 6 00 22.0 119.7 975 55 4 Image Chart
1999 6 6 06 22.4 118.2 980 50 4 Image Chart
1999 6 6 12 22.9 116.5 985 45 3 Image Chart
1999 6 6 18 22.7 114.6 985 45 3 Image Chart
1999 6 7 00 22.2 113.5 990 40 3 Image Chart
1999 6 7 06 21.5 112.7 990 40 3 Image Chart
1999 6 7 12 21.7 112.8 990 35 3 Image Chart
1999 6 7 18 22.5 112.4 992 0 2 Image Chart
1999 6 8 00 23.0 111.8 994 0 2 Image Chart
1999 6 8 06 23.8 111.2 996 0 2 Image Chart
1999 6 8 12 24.5 110.2 1000 0 2 Image Chart
1999 6 8 18 25.2 109.5 1002 0 2 Image Chart
1999 6 9 00 25.2 107.3 1004 0 2 Image Chart
Japan Meteorological Agency Best Track Data | Correction Date : 2005-03-01
< Typhoon 199902 1999 Season Typhoon 199904 >

Help